Gonderange, Luxembourg
Current Conditions -  °F | °C
As of 3:50 AM on Thursday 27 Nov 2014 (Local Time) from ELLX Reporting Station
Moderate Fog Moderate Fog  
Wind Chill: 41°   Ceiling: 300
Heat Index: 41°   Visibility: 0.18mi
Dew Point: 41°   Wind: 2mph
Humidity: 100%   Direction: NA
Pressure: 29.8"   Gusts: NA
Location:  49.69°N, 6.25°E
Report Text: ELLX 270250Z VRB02KT 0300 R24/0550N FG SCT001 OVC003 05/05 Q1009 NOSIG
Loading
Personal Weather Stations






























Interactive Weather Map New forecast layout! Learn more

10-Day Weather Forecast

Advertisements
Track Severe Weather on mobile